createdAt,value
2023-05-22T00:01:08.779Z,71.37
2023-05-22T00:03:37.818Z,71.50
2023-05-22T00:06:10.208Z,72.13
2023-05-22T00:08:38.419Z,72.67
2023-05-22T00:11:07.408Z,73.63
2023-05-22T00:13:37.316Z,74.58
2023-05-22T00:16:11.687Z,74.03
2023-05-22T00:18:42.723Z,74.04
2023-05-22T00:21:10.860Z,73.54
2023-05-22T00:23:41.229Z,73.70
2023-05-22T00:26:09.108Z,74.59
2023-05-22T00:28:37.315Z,75.81
2023-05-22T00:31:07.873Z,75.75
2023-05-22T00:33:41.617Z,72.82
2023-05-22T00:36:12.149Z,72.66
2023-05-22T00:38:44.142Z,73.10
2023-05-22T00:41:12.090Z,72.62
2023-05-22T00:43:42.099Z,74.17
2023-05-22T00:46:12.877Z,73.95
2023-05-22T00:48:44.460Z,74.34
2023-05-22T00:51:15.440Z,74.88
2023-05-22T00:53:56.207Z,74.92
2023-05-22T00:56:24.569Z,73.39
2023-05-22T01:01:42.168Z,73.06
2023-05-22T01:04:13.457Z,73.80
2023-05-22T01:06:47.644Z,74.19
2023-05-22T01:09:25.372Z,74.53
2023-05-22T01:12:03.155Z,75.59
2023-05-22T01:14:41.871Z,73.21
2023-05-22T01:17:24.584Z,74.61
2023-05-22T01:20:07.282Z,74.48
2023-05-22T01:23:03.069Z,74.95
2023-05-22T01:25:55.311Z,73.94
2023-05-22T01:28:45.976Z,73.74
2023-05-22T01:31:19.472Z,74.78
2023-05-22T01:33:50.416Z,74.81
2023-05-22T01:36:23.991Z,76.46
2023-05-22T01:38:56.432Z,75.27
2023-05-22T01:41:25.882Z,74.37
2023-05-22T01:43:58.742Z,74.10
2023-05-22T01:46:37.184Z,74.15
2023-05-22T01:49:06.588Z,75.15
2023-05-22T01:51:46.561Z,76.00
2023-05-22T01:54:27.462Z,76.28
2023-05-22T01:57:07.308Z,76.11
2023-05-22T01:59:48.564Z,76.73
2023-05-22T02:02:23.160Z,75.65
2023-05-22T02:05:00.087Z,76.94
2023-05-22T02:07:34.708Z,78.13
2023-05-22T02:10:08.257Z,76.37
2023-05-22T02:12:37.888Z,76.44
2023-05-22T02:15:10.594Z,76.34
2023-05-22T02:17:41.478Z,77.46
2023-05-22T02:20:15.475Z,77.24
2023-05-22T02:22:44.925Z,78.34
2023-05-22T02:25:15.149Z,78.55
2023-05-22T02:27:45.757Z,79.18
2023-05-22T02:30:19.702Z,79.97
2023-05-22T02:32:53.765Z,79.56
2023-05-22T02:35:22.761Z,79.87
2023-05-22T02:37:50.807Z,80.03
2023-05-22T02:40:19.084Z,80.06
2023-05-22T02:42:49.278Z,80.11
2023-05-22T02:45:18.247Z,79.71
2023-05-22T02:47:46.825Z,79.98
2023-05-22T02:50:17.693Z,80.13
2023-05-22T02:52:46.539Z,80.35
2023-05-22T02:55:16.093Z,80.25
2023-05-22T02:57:46.759Z,80.03
2023-05-22T03:00:15.269Z,80.02
2023-05-22T03:02:44.962Z,80.20
2023-05-22T03:05:18.266Z,80.08
2023-05-22T03:07:48.994Z,80.47
2023-05-22T03:10:17.656Z,80.44
2023-05-22T03:12:48.324Z,80.74
2023-05-22T03:15:20.840Z,80.55
2023-05-22T03:17:48.732Z,80.41
2023-05-22T03:20:17.111Z,79.68
2023-05-22T03:22:45.345Z,80.25
2023-05-22T03:25:15.524Z,80.31
2023-05-22T03:27:43.375Z,80.00
2023-05-22T03:30:12.467Z,80.07
2023-05-22T03:32:40.996Z,79.95
2023-05-22T03:35:15.773Z,79.88
2023-05-22T03:37:43.580Z,80.53
2023-05-22T03:40:12.429Z,80.16
2023-05-22T03:42:42.432Z,80.64
2023-05-22T03:45:12.595Z,81.21
2023-05-22T03:47:43.890Z,81.07
2023-05-22T03:50:12.209Z,81.56
2023-05-22T03:52:41.934Z,81.32
2023-05-22T03:55:12.159Z,80.04
2023-05-22T03:57:41.598Z,81.71
2023-05-22T04:00:15.140Z,81.60
2023-05-22T04:02:46.938Z,80.56
2023-05-22T04:05:15.416Z,79.76
2023-05-22T04:07:48.316Z,79.88
2023-05-22T04:10:16.935Z,79.72
2023-05-22T04:12:47.521Z,79.41
2023-05-22T04:15:16.009Z,79.48
2023-05-22T04:17:44.421Z,79.41
2023-05-22T04:20:13.141Z,79.54
2023-05-22T04:22:41.598Z,80.20
2023-05-22T04:25:11.520Z,79.61
2023-05-22T04:27:40.730Z,79.56
2023-05-22T04:30:11.446Z,78.82
2023-05-22T04:32:39.694Z,80.29
2023-05-22T04:35:10.360Z,79.68
2023-05-22T04:37:40.806Z,78.99
2023-05-22T04:40:10.140Z,79.07
2023-05-22T04:42:39.219Z,78.22
2023-05-22T04:45:08.895Z,78.36
2023-05-22T04:47:41.728Z,78.40
2023-05-22T04:50:10.668Z,78.11
2023-05-22T04:52:41.970Z,78.20
2023-05-22T04:55:12.180Z,77.87
2023-05-22T04:57:40.998Z,77.98
2023-05-22T05:00:10.242Z,77.65
2023-05-22T05:02:40.240Z,77.71
2023-05-22T05:05:08.932Z,77.01
2023-05-22T05:07:38.824Z,77.18
2023-05-22T05:10:09.076Z,77.43
2023-05-22T05:12:39.103Z,76.80
2023-05-22T05:15:10.477Z,75.63
2023-05-22T05:17:40.259Z,74.42
2023-05-22T05:20:11.497Z,73.42
2023-05-22T05:22:40.476Z,72.69
2023-05-22T05:25:11.651Z,71.85
2023-05-22T05:27:40.090Z,70.66
2023-05-22T05:30:10.772Z,70.70
2023-05-22T05:32:42.092Z,69.99
2023-05-22T05:35:10.881Z,68.98
2023-05-22T05:37:42.031Z,67.89
2023-05-22T05:40:10.960Z,67.67
2023-05-22T05:42:41.163Z,68.23
2023-05-22T05:45:11.522Z,67.38
2023-05-22T05:47:41.447Z,66.27
2023-05-22T05:50:11.467Z,65.35
2023-05-22T05:52:39.782Z,65.34
2023-05-22T05:55:07.954Z,65.25
2023-05-22T05:57:38.667Z,65.02
2023-05-22T06:00:10.636Z,65.09
2023-05-22T06:02:41.012Z,65.21
2023-05-22T06:05:10.663Z,64.69
2023-05-22T06:07:40.593Z,64.95
2023-05-22T06:10:16.842Z,62.89
2023-05-22T06:12:44.925Z,61.27
2023-05-22T06:15:17.634Z,61.47
2023-05-22T06:17:47.470Z,60.14
2023-05-22T06:20:16.022Z,61.61
2023-05-22T06:22:44.180Z,61.63
2023-05-22T06:25:13.909Z,61.27
2023-05-22T06:27:42.817Z,60.89
2023-05-22T06:30:12.486Z,61.17
2023-05-22T06:32:58.240Z,60.75
2023-05-22T06:35:26.485Z,61.52
2023-05-22T06:37:58.986Z,58.85
2023-05-22T06:40:29.344Z,58.80
2023-05-22T06:42:59.989Z,59.26
2023-05-22T06:45:28.552Z,59.38
2023-05-22T06:47:59.174Z,59.54
2023-05-22T06:50:27.302Z,59.61
2023-05-22T06:53:01.447Z,57.62
2023-05-22T06:55:29.302Z,57.83
2023-05-22T06:57:57.108Z,56.75
2023-05-22T07:00:26.141Z,55.85
2023-05-22T07:02:54.496Z,57.62
2023-05-22T07:05:24.497Z,56.60
2023-05-22T07:07:52.578Z,55.92
2023-05-22T07:10:21.685Z,56.10
2023-05-22T07:12:49.936Z,56.54
2023-05-22T07:15:18.677Z,56.23
2023-05-22T07:17:49.226Z,55.25
2023-05-22T07:20:18.786Z,54.95
2023-05-22T07:22:49.804Z,55.38
2023-05-22T07:25:18.450Z,54.38
2023-05-22T07:27:48.289Z,53.89
2023-05-22T07:30:19.866Z,53.99
2023-05-22T07:32:49.727Z,53.03
2023-05-22T07:35:18.867Z,52.87
2023-05-22T07:37:53.259Z,53.02
2023-05-22T07:40:21.655Z,52.70
2023-05-22T07:42:50.075Z,53.29
2023-05-22T07:45:17.969Z,51.94
2023-05-22T07:47:47.263Z,52.61
2023-05-22T07:50:15.158Z,51.81
2023-05-22T07:52:44.313Z,52.79
2023-05-22T07:55:15.673Z,50.51
2023-05-22T07:57:44.340Z,51.14
2023-05-22T08:00:15.830Z,50.22
2023-05-22T08:02:45.737Z,50.22
2023-05-22T08:05:15.471Z,51.13
2023-05-22T08:07:44.682Z,51.69
2023-05-22T08:10:18.693Z,51.19
2023-05-22T08:12:46.539Z,50.83
2023-05-22T08:15:15.802Z,50.54
2023-05-22T08:17:45.945Z,49.12
2023-05-22T08:20:14.665Z,49.65
2023-05-22T08:22:46.504Z,49.69
2023-05-22T08:25:17.697Z,49.75
2023-05-22T08:27:48.897Z,50.53
2023-05-22T08:30:18.440Z,48.70
2023-05-22T08:32:48.485Z,50.07
2023-05-22T08:35:17.158Z,49.13
2023-05-22T08:37:46.241Z,49.27
2023-05-22T08:40:18.086Z,46.98
2023-05-22T08:42:46.267Z,47.77
2023-05-22T08:45:18.437Z,48.04
2023-05-22T08:47:53.858Z,47.11
2023-05-22T08:50:23.058Z,47.34
2023-05-22T08:52:54.074Z,46.79
2023-05-22T08:55:24.804Z,47.20
2023-05-22T08:57:55.377Z,48.17
2023-05-22T09:00:24.863Z,47.38
2023-05-22T09:02:56.194Z,47.36
2023-05-22T09:05:27.050Z,46.17
2023-05-22T09:07:58.396Z,46.32
2023-05-22T09:10:35.970Z,46.94
2023-05-22T09:13:08.876Z,46.05
2023-05-22T09:15:39.124Z,46.57
2023-05-22T09:18:07.981Z,46.49
2023-05-22T09:20:39.369Z,46.33
2023-05-22T09:23:17.720Z,44.34
2023-05-22T09:25:49.771Z,45.24
2023-05-22T09:28:20.612Z,45.08
2023-05-22T09:30:51.084Z,45.24
2023-05-22T09:33:19.304Z,46.26
2023-05-22T09:35:49.770Z,45.33
2023-05-22T09:38:19.188Z,44.49
2023-05-22T09:40:53.909Z,45.78
2023-05-22T09:43:23.797Z,43.52
2023-05-22T09:45:58.982Z,44.38
2023-05-22T09:48:27.881Z,44.32
2023-05-22T09:51:02.152Z,44.08
2023-05-22T09:53:35.028Z,45.16
2023-05-22T09:56:12.586Z,44.34
2023-05-22T09:58:47.133Z,43.89
2023-05-22T10:01:17.559Z,44.42
2023-05-22T10:03:53.244Z,43.14
2023-05-22T10:06:24.026Z,42.28
2023-05-22T10:08:58.224Z,42.92
2023-05-22T10:11:32.215Z,43.64
2023-05-22T10:14:01.849Z,43.15
2023-05-22T10:16:31.195Z,43.37
2023-05-22T10:19:04.300Z,43.99
2023-05-22T10:21:33.941Z,44.55
2023-05-22T10:24:06.552Z,41.19
2023-05-22T10:26:36.260Z,44.87
2023-05-22T10:29:12.951Z,43.15
2023-05-22T10:31:46.905Z,43.87
2023-05-22T10:34:32.696Z,44.31
2023-05-22T10:37:19.214Z,44.52
2023-05-22T10:40:07.283Z,44.18
2023-05-22T10:42:40.078Z,43.84
2023-05-22T10:45:09.500Z,44.35
2023-05-22T10:47:39.682Z,46.40
2023-05-22T10:50:12.810Z,46.40
2023-05-22T10:52:41.320Z,45.87
2023-05-22T10:55:12.318Z,44.22
2023-05-22T10:57:45.931Z,44.35
2023-05-22T11:00:20.037Z,44.44
2023-05-22T11:02:48.238Z,42.58
2023-05-22T11:05:38.903Z,44.29
2023-05-22T11:08:30.660Z,44.30
2023-05-22T11:11:01.918Z,43.69
2023-05-22T11:13:33.762Z,44.34
2023-05-22T11:16:06.805Z,44.48
2023-05-22T11:18:42.970Z,43.83
2023-05-22T11:21:16.304Z,43.81
2023-05-22T11:23:47.004Z,43.64
2023-05-22T11:26:28.007Z,43.69
2023-05-22T11:29:02.012Z,43.63
2023-05-22T11:31:36.259Z,43.84
2023-05-22T11:34:04.719Z,42.55
2023-05-22T11:36:33.883Z,43.65
2023-05-22T11:39:05.763Z,42.41
2023-05-22T11:41:34.880Z,42.24
2023-05-22T11:44:06.407Z,42.67
2023-05-22T11:46:40.424Z,43.05
2023-05-22T11:49:13.176Z,42.21
2023-05-22T11:51:45.746Z,42.11
2023-05-22T11:54:18.108Z,41.41
2023-05-22T11:56:49.316Z,41.74
2023-05-22T11:59:22.840Z,41.48
2023-05-22T12:01:53.210Z,42.19
2023-05-22T12:04:21.973Z,41.07
2023-05-22T12:06:50.289Z,41.22
2023-05-22T12:09:18.932Z,42.78
2023-05-22T12:11:49.069Z,41.21
2023-05-22T12:14:18.637Z,41.26
2023-05-22T12:16:46.436Z,42.24
2023-05-22T12:19:16.074Z,40.64
2023-05-22T12:21:46.320Z,41.09
2023-05-22T12:24:16.571Z,40.92
2023-05-22T12:26:51.385Z,40.72
2023-05-22T12:29:23.296Z,40.46
2023-05-22T12:31:52.574Z,41.68
2023-05-22T12:34:20.673Z,40.71
2023-05-22T12:36:49.587Z,40.35
2023-05-22T12:39:20.161Z,40.65
2023-05-22T12:41:48.326Z,39.60
2023-05-22T12:44:17.654Z,39.97
2023-05-22T12:46:47.799Z,38.82
2023-05-22T12:49:16.283Z,39.35
2023-05-22T12:51:45.420Z,39.87
2023-05-22T12:54:15.710Z,40.53
2023-05-22T12:56:45.479Z,36.95
2023-05-22T12:59:19.488Z,38.17
2023-05-22T13:01:51.714Z,37.82
2023-05-22T13:04:20.629Z,37.78
2023-05-22T13:06:48.556Z,37.64
2023-05-22T13:09:21.371Z,37.56
2023-05-22T13:11:50.521Z,36.61
2023-05-22T13:14:19.560Z,35.49
2023-05-22T13:16:47.822Z,36.93
2023-05-22T13:19:20.175Z,37.21
2023-05-22T13:21:48.825Z,35.80
2023-05-22T13:24:16.975Z,36.15
2023-05-22T13:26:44.836Z,37.87
2023-05-22T13:29:38.916Z,38.12
2023-05-22T13:32:10.454Z,37.60
2023-05-22T13:34:41.421Z,37.09
2023-05-22T13:37:10.963Z,37.61
2023-05-22T13:39:39.736Z,37.48
2023-05-22T13:42:08.313Z,35.74
2023-05-22T13:44:36.635Z,32.58
2023-05-22T13:47:06.150Z,30.53
2023-05-22T13:49:35.195Z,30.02
2023-05-22T13:52:07.451Z,30.54
2023-05-22T13:54:35.909Z,30.41
2023-05-22T13:57:10.424Z,29.99
2023-05-22T14:00:04.394Z,34.03
2023-05-22T14:02:32.426Z,32.46
2023-05-22T14:05:01.498Z,31.23
2023-05-22T14:07:31.219Z,31.43
2023-05-22T14:10:01.636Z,32.26
2023-05-22T14:12:37.196Z,29.56
2023-05-22T14:15:05.645Z,26.58
2023-05-22T14:17:35.078Z,27.85
2023-05-22T14:20:03.888Z,31.45
2023-05-22T14:22:47.897Z,31.49
2023-05-22T14:25:28.911Z,33.82
2023-05-22T14:27:58.684Z,32.43
2023-05-22T14:30:26.832Z,29.20
2023-05-22T14:32:56.412Z,27.33
2023-05-22T14:35:33.610Z,26.32
2023-05-22T14:38:04.910Z,26.18
2023-05-22T14:40:34.493Z,26.29
2023-05-22T14:43:04.861Z,25.45
2023-05-22T14:45:33.956Z,27.39
2023-05-22T14:48:03.717Z,28.48
2023-05-22T14:50:40.291Z,28.82
2023-05-22T14:53:16.258Z,32.26
2023-05-22T14:55:44.346Z,33.38
2023-05-22T14:58:13.170Z,35.50
2023-05-22T15:00:43.606Z,35.08
2023-05-22T15:03:13.579Z,35.70
2023-05-22T15:05:43.031Z,37.27
2023-05-22T15:08:14.184Z,39.74
2023-05-22T15:10:44.333Z,41.01
2023-05-22T15:13:23.614Z,41.32
2023-05-22T15:15:54.346Z,42.41
2023-05-22T15:18:25.307Z,42.44
2023-05-22T15:20:55.060Z,42.91
2023-05-22T15:23:26.592Z,43.25
2023-05-22T15:25:59.201Z,43.38
2023-05-22T15:28:27.952Z,43.94
2023-05-22T15:30:56.784Z,42.56
2023-05-22T15:33:30.062Z,43.63
2023-05-22T15:36:00.289Z,41.80
2023-05-22T15:38:31.153Z,40.86
2023-05-22T15:41:00.507Z,40.93
2023-05-22T15:43:30.919Z,39.42
2023-05-22T15:46:03.052Z,39.45
2023-05-22T15:48:32.417Z,37.11
2023-05-22T15:51:01.365Z,34.99
2023-05-22T15:53:32.422Z,33.74
2023-05-22T15:56:01.423Z,35.31
2023-05-22T15:58:30.435Z,33.46
2023-05-22T16:00:59.939Z,34.11
2023-05-22T16:03:29.524Z,35.47
2023-05-22T16:06:00.676Z,38.95
2023-05-22T16:08:32.184Z,41.57
2023-05-22T16:11:04.309Z,42.50
2023-05-22T16:13:34.788Z,43.65
2023-05-22T16:16:05.972Z,42.19
2023-05-22T16:18:40.679Z,41.53
2023-05-22T16:21:12.094Z,42.60
2023-05-22T16:23:43.536Z,41.78
2023-05-22T16:26:21.605Z,42.21
2023-05-22T16:28:52.054Z,42.07
2023-05-22T16:31:22.536Z,42.40
2023-05-22T16:33:53.299Z,42.79
2023-05-22T16:36:28.138Z,41.59
2023-05-22T16:38:57.249Z,41.46
2023-05-22T16:41:37.800Z,40.75
2023-05-22T16:44:09.341Z,40.26
2023-05-22T16:46:39.030Z,40.54
2023-05-22T16:49:08.465Z,40.97
2023-05-22T16:51:36.994Z,42.09
2023-05-22T16:54:07.628Z,42.97
2023-05-22T16:56:38.004Z,44.47
2023-05-22T16:59:12.383Z,44.32
2023-05-22T17:01:41.003Z,45.77
2023-05-22T17:04:14.789Z,46.43
2023-05-22T17:06:43.714Z,47.89
2023-05-22T17:09:14.653Z,48.50
2023-05-22T17:11:44.461Z,48.54
2023-05-22T17:14:14.680Z,51.13
2023-05-22T17:16:42.796Z,50.54
2023-05-22T17:19:13.536Z,50.56
2023-05-22T17:21:47.079Z,50.15
2023-05-22T17:24:17.333Z,50.30
2023-05-22T17:26:48.068Z,50.06
2023-05-22T17:29:16.745Z,50.83
2023-05-22T17:31:56.590Z,50.36
2023-05-22T17:34:25.790Z,49.46
2023-05-22T17:36:58.231Z,53.91
2023-05-22T17:39:36.946Z,59.90
2023-05-22T17:42:15.789Z,60.25
2023-05-22T17:44:47.830Z,66.52
2023-05-22T17:47:22.989Z,70.44
2023-05-22T17:49:54.227Z,72.60
2023-05-22T17:52:23.616Z,75.52
2023-05-22T17:54:53.314Z,76.69
2023-05-22T17:57:26.378Z,72.64
2023-05-22T17:59:56.336Z,73.61
2023-05-22T18:02:28.381Z,72.64
2023-05-22T18:04:59.768Z,70.88
2023-05-22T18:07:27.895Z,74.41
2023-05-22T18:09:58.472Z,73.57
2023-05-22T18:12:31.806Z,72.92
2023-05-22T18:15:00.610Z,74.73
2023-05-22T18:17:37.028Z,73.47
2023-05-22T18:20:09.242Z,73.30
2023-05-22T18:22:39.009Z,73.49
2023-05-22T18:25:07.977Z,71.07
2023-05-22T18:27:51.756Z,71.07
2023-05-22T18:30:23.274Z,76.38
2023-05-22T18:32:55.551Z,73.33
2023-05-22T18:35:25.785Z,74.12
2023-05-22T18:37:55.156Z,73.53
2023-05-22T18:40:24.445Z,75.01
2023-05-22T18:42:59.072Z,74.97
2023-05-22T18:45:29.033Z,76.67
2023-05-22T18:48:04.850Z,78.90
2023-05-22T18:50:40.799Z,79.57
2023-05-22T18:53:10.202Z,80.07
2023-05-22T18:55:38.659Z,78.62
2023-05-22T18:58:08.115Z,80.56
2023-05-22T19:00:39.947Z,80.10
2023-05-22T19:03:12.529Z,77.08
2023-05-22T19:05:45.714Z,77.16
2023-05-22T19:08:13.999Z,76.83
2023-05-22T19:10:46.049Z,79.28
2023-05-22T19:13:16.500Z,81.45
2023-05-22T19:15:47.122Z,79.29
2023-05-22T19:18:15.107Z,78.25
2023-05-22T19:20:47.623Z,79.34
2023-05-22T19:23:18.276Z,78.05
2023-05-22T19:25:50.352Z,81.70
2023-05-22T19:28:27.699Z,83.86
2023-05-22T19:31:05.678Z,84.16
2023-05-22T19:33:43.938Z,84.53
2023-05-22T19:36:12.995Z,85.68
2023-05-22T19:38:47.349Z,87.78
2023-05-22T19:41:17.015Z,85.38
2023-05-22T19:43:47.584Z,84.71
2023-05-22T19:46:16.992Z,75.66
2023-05-22T19:48:47.193Z,73.43
2023-05-22T19:51:21.154Z,72.40
2023-05-22T19:53:49.474Z,69.43
2023-05-22T19:56:20.333Z,65.86
2023-05-22T19:58:53.403Z,67.71
2023-05-22T20:01:24.311Z,67.24
2023-05-22T20:03:56.323Z,64.73
2023-05-22T20:06:24.625Z,64.90
2023-05-22T20:08:53.213Z,66.90
2023-05-22T20:11:22.248Z,65.65
2023-05-22T20:13:54.513Z,65.06
2023-05-22T20:16:26.873Z,66.13
2023-05-22T20:19:00.696Z,66.98
2023-05-22T20:21:28.626Z,65.58
2023-05-22T20:24:01.079Z,65.48
2023-05-22T20:26:31.588Z,67.73
2023-05-22T20:29:01.415Z,67.84
2023-05-22T20:31:29.427Z,68.36
2023-05-22T20:34:05.472Z,67.63
2023-05-22T20:36:40.814Z,68.61
2023-05-22T20:39:10.748Z,70.28
2023-05-22T20:41:43.224Z,69.90
2023-05-22T20:44:34.236Z,70.49
2023-05-22T20:47:03.252Z,71.25
2023-05-22T20:49:36.896Z,72.06
2023-05-22T20:52:06.193Z,72.80
2023-05-22T20:54:37.347Z,72.48
2023-05-22T20:57:08.900Z,72.89
2023-05-22T20:59:38.204Z,73.20
2023-05-22T21:02:07.285Z,72.75
2023-05-22T21:04:41.188Z,73.82
2023-05-22T21:07:11.415Z,73.93
2023-05-22T21:09:42.025Z,74.09
2023-05-22T21:12:13.690Z,74.55
2023-05-22T21:14:47.938Z,74.73
2023-05-22T21:17:20.218Z,75.97
2023-05-22T21:19:56.215Z,75.84
2023-05-22T21:22:24.545Z,75.97
2023-05-22T21:24:53.319Z,75.96
2023-05-22T21:27:23.535Z,75.53
2023-05-22T21:29:55.176Z,75.59
2023-05-22T21:32:28.140Z,75.41
2023-05-22T21:34:59.665Z,75.95
2023-05-22T21:37:28.052Z,76.15
2023-05-22T21:39:56.683Z,76.00
2023-05-22T21:42:26.427Z,75.43
2023-05-22T21:44:56.630Z,75.76
2023-05-22T21:47:25.281Z,76.15
2023-05-22T21:49:53.195Z,76.01
2023-05-22T21:52:22.500Z,75.84
2023-05-22T21:54:50.563Z,76.54
2023-05-22T21:57:19.312Z,76.17
2023-05-22T21:59:53.567Z,76.72
2023-05-22T22:02:25.452Z,77.41
2023-05-22T22:04:56.067Z,77.96
2023-05-22T22:07:25.987Z,78.45
2023-05-22T22:09:53.734Z,79.00
2023-05-22T22:12:24.820Z,78.59
2023-05-22T22:14:55.746Z,78.39
2023-05-22T22:17:33.326Z,79.02
2023-05-22T22:20:01.264Z,79.21
2023-05-22T22:22:30.777Z,79.23
2023-05-22T22:25:00.968Z,78.53
2023-05-22T22:27:29.252Z,78.87
2023-05-22T22:29:57.297Z,79.74
2023-05-22T22:32:27.446Z,79.25
2023-05-22T22:34:55.283Z,79.02
2023-05-22T22:37:24.859Z,78.33
2023-05-22T22:39:53.266Z,78.88
2023-05-22T22:42:22.049Z,78.15
2023-05-22T22:44:50.289Z,78.20
2023-05-22T22:47:18.745Z,78.36
2023-05-22T22:49:53.167Z,77.70
2023-05-22T22:52:21.462Z,77.07
2023-05-22T22:54:50.184Z,77.42
2023-05-22T22:57:20.053Z,77.65
2023-05-22T22:59:48.534Z,76.96
2023-05-22T23:02:16.914Z,77.18
2023-05-22T23:04:45.990Z,77.21
2023-05-22T23:07:15.366Z,76.85
2023-05-22T23:09:43.227Z,77.62
2023-05-22T23:12:12.668Z,77.57
2023-05-22T23:14:41.137Z,77.78
2023-05-22T23:17:10.566Z,77.64
2023-05-22T23:19:46.346Z,77.88
2023-05-22T23:22:17.811Z,78.63
2023-05-22T23:24:46.344Z,77.54
2023-05-22T23:27:15.342Z,77.62
2023-05-22T23:29:46.722Z,77.78
2023-05-22T23:32:15.562Z,77.29
2023-05-22T23:34:43.930Z,78.32
2023-05-22T23:37:12.994Z,77.61
2023-05-22T23:39:42.351Z,77.82
2023-05-22T23:42:12.033Z,77.88
2023-05-22T23:44:41.713Z,77.67
2023-05-22T23:47:10.419Z,77.67
2023-05-22T23:49:38.575Z,77.75
2023-05-22T23:52:09.081Z,78.02
2023-05-22T23:54:37.026Z,77.95
2023-05-22T23:57:07.518Z,77.77
2023-05-22T23:59:41.010Z,77.67
